Canaan, NY (12029)

1:00 PM EDT on October 23, 2014 (GMT -0400)
KMARICHM2 | Change Station
CLOSE
Current Station
Personal Weather Station
Location: Richmond, MA
Elevation: 1073 ft
Nearby Weather Stations

Elev 1073 ft 42.36 °N, 73.37 °W | Updated 7 seconds ago

Overcast
Overcast
45.2 °F
Feels Like 45 °F
N
1.0
Wind Variable Wind from NE
Gusts 7.0 mph

Today
High -- | Low -- °F
--% Chance of Precip.
Yesterday
High -- | Low -- °F
Precip. -- in
7:15 AM 5:59 PM
Waning Crescent, 0% visible
Pressure 29.72 in
Visibility 10.0 miles
Clouds Mostly Cloudy 1400 ft
Overcast 2100 ft
Windchill 45 °F
Dew Point 36 °F
Humidity 69%
Rainfall 0.15 in
Snow Depth Not available.
UV 1 out of 12
Pollen .10 out of 12
Air Quality Not available.
Flu Activity Not available.
METAR KPSF 231654Z AUTO 32006KT 10SM BKN014 OVC021 07/06 A2973 RMK AO2 RAE25 SLP064 P0000 T00720061

More Conditions Fewer Conditions

Pressure 29.72 in
Visibility 10.0 miles
Clouds Mostly Cloudy 1400 ft
Overcast 2100 ft
Windchill 45 °F
Dew Point 36 °F
Humidity 69%
Rainfall 0.15 in
Snow Depth Not available.
UV 1 out of 12
Pollen .10 out of 12
Air Quality Not available.
Flu Activity Not available.
METAR KPSF 231654Z AUTO 32006KT 10SM BKN014 OVC021 07/06 A2973 RMK AO2 RAE25 SLP064 P0000 T00720061

More Conditions Fewer Conditions

10-Day Weather Forecast

Almanac

Astronomy

Oct. 23, 2014 Rise Set
Actual Time 7:15 AM EDT 5:59 PM EDT
Civil Twilight 6:47 AM EDT 6:27 PM EDT
Nautical Twilight 6:14 AM EDT 7:00 PM EDT
Astronomical Twilight 5:41 AM EDT 7:33 PM EDT
Moon 6:52 AM EDT 5:59 PM EDT
Length of Visible Light 11h 40m
Length of Day
10h 43m
Tomorrow will be 2m 40s shorter.
Waning Crescent, 0% of the Moon is Illuminated
Today
Waning Crescent
Oct 23
New
Oct 30
First Quarter
Nov 6
Full
Nov 14
Last Quarter

Today's Extremes

State Highs State Lows

Community

WunderPhotos

Upload Photos

1,764,311 photos uploaded!

WunderBlogs® & News

Nearby

Snow Depth

Station Depth Elevation
No new snow has been reported.

Earthquake Activity

City Distance Mag. Time & Date
No recent earthquake activity has been reported nearby.
Minimum magnitude displayed is 2.5.

Coastal Water Temperatures

Place Temperature
No Stations Reporting

Nearby Weather Stations